Time;durP1;ratioP1;P1;durP2;ratioP2;P2;SDS_P1;SDS_P2;PMS_P1;PMS_P2;Temp;Humidity;BMP_temperature;BMP_pressure;BME280_temperature;BME280_humidity;BME280_pressure;Samples;Min_cycle;Max_cycle;Signal;HPM_P1;HPM_P2
2021/01/28 00:00:30;;;;;;;5.13;4.63;;;2.80;99.90;;;;;;5083600;28;20272;-69
2021/01/28 00:02:56;;;;;;;5.57;4.40;;;2.80;99.90;;;;;;5078144;28;20199;-68
2021/01/28 00:05:23;;;;;;;5.93;4.90;;;2.80;99.90;;;;;;5069375;28;20238;-70
2021/01/28 00:07:49;;;;;;;4.83;4.43;;;2.70;99.90;;;;;;5068621;28;20250;-69
2021/01/28 00:10:15;;;;;;;5.20;4.77;;;2.70;99.90;;;;;;5064491;28;20212;-68
2021/01/28 00:12:41;;;;;;;5.93;5.33;;;2.70;99.90;;;;;;5067909;28;20193;-68
2021/01/28 00:15:08;;;;;;;4.70;4.30;;;2.70;99.90;;;;;;5073196;28;20206;-68
2021/01/28 00:17:34;;;;;;;5.30;4.80;;;2.70;99.90;;;;;;5073200;28;20185;-69
2021/01/28 00:19:59;;;;;;;5.27;4.77;;;2.80;99.90;;;;;;5082271;28;20863;-69
2021/01/28 00:22:25;;;;;;;5.27;4.77;;;2.80;99.90;;;;;;5080214;28;20183;-69
2021/01/28 00:24:51;;;;;;;5.37;4.87;;;2.80;99.90;;;;;;5083341;28;20192;-68
2021/01/28 00:27:16;;;;;;;5.47;4.90;;;2.80;99.90;;;;;;5067045;28;20247;-69
2021/01/28 00:29:42;;;;;;;5.40;4.60;;;2.80;99.90;;;;;;5084186;28;20208;-69
2021/01/28 00:32:08;;;;;;;4.70;4.30;;;2.80;99.90;;;;;;5079295;28;20192;-69
2021/01/28 00:34:34;;;;;;;5.30;4.80;;;2.80;99.90;;;;;;5077124;28;20179;-70
2021/01/28 00:37:00;;;;;;;5.47;4.97;;;2.80;99.90;;;;;;5072803;28;20181;-68
2021/01/28 00:39:26;;;;;;;6.03;5.03;;;2.80;99.90;;;;;;5079906;28;20212;-69
2021/01/28 00:41:51;;;;;;;5.50;5.00;;;2.80;99.90;;;;;;5080972;28;20190;-69
2021/01/28 00:44:17;;;;;;;5.97;5.40;;;2.90;99.90;;;;;;5077292;28;20211;-70
2021/01/28 00:46:42;;;;;;;5.23;4.73;;;2.90;99.90;;;;;;5075037;28;20179;-70
2021/01/28 00:49:08;;;;;;;5.63;4.50;;;2.90;99.90;;;;;;5075614;28;20688;-70
2021/01/28 00:51:34;;;;;;;4.57;4.17;;;2.90;99.90;;;;;;5086955;28;20279;-68
2021/01/28 00:53:59;;;;;;;5.37;4.77;;;2.90;99.90;;;;;;5080394;28;20242;-68
2021/01/28 00:56:25;;;;;;;5.53;4.97;;;2.90;99.90;;;;;;5072490;28;20186;-70
2021/01/28 00:58:51;;;;;;;5.20;4.70;;;2.90;99.90;;;;;;5071486;28;20205;-68
2021/01/28 01:01:17;;;;;;;4.90;4.40;;;2.90;99.90;;;;;;5072979;28;20190;-69
2021/01/28 01:03:42;;;;;;;5.33;4.83;;;2.90;99.90;;;;;;5073157;28;20745;-67
2021/01/28 01:06:08;;;;;;;5.53;5.03;;;3.00;99.90;;;;;;5081169;28;20206;-69
2021/01/28 01:08:34;;;;;;;4.73;4.33;;;3.00;99.90;;;;;;5074739;28;20296;-71
2021/01/28 01:11:06;;;;;;;5.60;4.93;;;3.00;99.90;;;;;;5074334;28;20175;-69
2021/01/28 01:13:33;;;;;;;4.57;4.17;;;3.00;99.90;;;;;;5082457;28;20186;-68
2021/01/28 01:16:00;;;;;;;4.53;4.13;;;3.00;99.90;;;;;;5072289;28;20186;-68
2021/01/28 01:18:29;;;;;;;4.90;4.50;;;3.00;99.90;;;;;;5071834;28;20242;-68
2021/01/28 01:20:55;;;;;;;6.23;4.33;;;3.00;99.90;;;;;;5071087;28;20730;-69
2021/01/28 01:23:21;;;;;;;5.70;4.10;;;3.10;99.90;;;;;;5080165;28;20583;-69
2021/01/28 01:25:47;;;;;;;4.93;4.40;;;3.10;99.90;;;;;;5072164;28;20186;-69
2021/01/28 01:28:13;;;;;;;5.60;4.53;;;3.10;99.90;;;;;;5075722;28;20182;-69
2021/01/28 01:30:39;;;;;;;4.37;3.97;;;3.10;99.90;;;;;;5070151;28;20224;-69
2021/01/28 01:33:05;;;;;;;5.07;4.53;;;3.10;99.90;;;;;;5066486;28;20182;-69
2021/01/28 01:35:31;;;;;;;4.10;3.70;;;3.10;99.90;;;;;;5071990;28;20677;-69
2021/01/28 01:37:58;;;;;;;4.83;4.20;;;3.20;99.90;;;;;;5079348;28;20242;-70
2021/01/28 01:40:36;;;;;;;4.03;3.60;;;3.10;99.90;;;;;;5075520;28;20202;-69
2021/01/28 01:43:03;;;;;;;3.77;3.47;;;3.20;99.90;;;;;;5066119;28;20754;-69
2021/01/28 01:45:45;;;;;;;4.33;3.93;;;3.20;99.90;;;;;;5083888;28;20204;-69
2021/01/28 01:48:36;;;;;;;4.10;3.80;;;3.20;99.90;;;;;;5067116;28;20265;-68
2021/01/28 01:51:10;;;;;;;5.17;4.37;;;3.20;99.90;;;;;;5082977;28;20217;-70
2021/01/28 01:53:58;;;;;;;4.77;4.37;;;3.20;99.90;;;;;;5073120;28;20180;-70
2021/01/28 01:56:29;;;;;;;4.90;4.30;;;3.20;99.90;;;;;;5070650;28;20673;-70
2021/01/28 01:59:11;;;;;;;4.27;3.93;;;3.20;99.90;;;;;;5075590;28;20227;-69
2021/01/28 02:01:43;;;;;;;4.47;4.07;;;3.20;99.90;;;;;;5077008;28;20186;-68
2021/01/28 02:04:09;;;;;;;4.90;4.40;;;3.20;99.90;;;;;;5077452;28;20226;-70
2021/01/28 02:06:38;;;;;;;7.57;4.30;;;3.20;99.90;;;;;;5080075;28;20547;-69
2021/01/28 02:09:06;;;;;;;4.60;4.20;;;3.20;99.90;;;;;;5068163;28;20208;-69
2021/01/28 02:11:31;;;;;;;4.20;3.80;;;3.20;99.90;;;;;;5071551;28;20181;-69
2021/01/28 02:14:00;;;;;;;5.03;3.90;;;3.20;99.90;;;;;;5071025;28;20544;-68
2021/01/28 02:16:31;;;;;;;5.67;4.10;;;3.20;99.90;;;;;;5070696;28;20185;-69
2021/01/28 02:18:59;;;;;;;3.93;3.63;;;3.30;99.90;;;;;;5081243;28;20212;-71
2021/01/28 02:21:34;;;;;;;4.53;4.13;;;3.30;99.90;;;;;;5075389;28;20202;-69
2021/01/28 02:24:18;;;;;;;5.43;4.37;;;3.30;99.90;;;;;;5070799;28;20345;-68
2021/01/28 02:26:45;;;;;;;4.73;3.60;;;3.30;99.90;;;;;;5065976;28;20654;-69
2021/01/28 02:29:11;;;;;;;4.60;4.20;;;3.30;99.90;;;;;;5069822;28;20214;-69
2021/01/28 02:31:39;;;;;;;4.50;4.10;;;3.30;99.90;;;;;;5077901;28;20641;-69
2021/01/28 02:34:07;;;;;;;4.60;4.10;;;3.30;99.90;;;;;;5074468;28;20187;-69
2021/01/28 02:36:44;;;;;;;4.70;4.20;;;3.30;99.90;;;;;;5071739;28;20186;-69
2021/01/28 02:39:11;;;;;;;4.13;3.73;;;3.30;99.90;;;;;;5074025;28;20206;-69
2021/01/28 02:41:39;;;;;;;4.17;3.80;;;3.40;99.90;;;;;;5070026;28;20181;-69
2021/01/28 02:44:05;;;;;;;3.90;3.50;;;3.40;99.90;;;;;;5070556;28;20211;-69
2021/01/28 02:46:31;;;;;;;3.67;3.37;;;3.40;99.90;;;;;;5070912;28;20213;-69
2021/01/28 02:48:57;;;;;;;4.27;3.70;;;3.40;99.90;;;;;;5070559;28;20228;-68
2021/01/28 02:51:22;;;;;;;3.53;3.23;;;3.40;99.90;;;;;;5086311;28;20193;-69
2021/01/28 02:53:52;;;;;;;3.67;3.37;;;3.40;99.90;;;;;;5089333;28;20196;-69
2021/01/28 02:56:19;;;;;;;3.10;2.90;;;3.40;99.90;;;;;;5081052;28;20801;-69
2021/01/28 02:58:45;;;;;;;3.10;2.80;;;3.40;99.90;;;;;;5069816;28;20210;-69
2021/01/28 03:01:11;;;;;;;3.20;2.90;;;3.50;99.90;;;;;;5077219;28;20198;-69
2021/01/28 03:03:37;;;;;;;3.47;3.07;;;3.50;99.90;;;;;;5090346;28;20202;-68
2021/01/28 03:06:04;;;;;;;3.83;3.53;;;3.50;99.90;;;;;;5071627;28;20185;-68
2021/01/28 03:08:31;;;;;;;3.50;3.20;;;3.60;99.90;;;;;;5062556;28;20176;-71
2021/01/28 03:10:57;;;;;;;3.73;3.27;;;3.60;99.90;;;;;;5082618;28;20235;-68
2021/01/28 03:13:23;;;;;;;3.30;3.00;;;3.60;99.90;;;;;;5078362;28;20193;-69
2021/01/28 03:15:49;;;;;;;3.50;3.20;;;3.60;99.90;;;;;;5069935;28;20192;-68
2021/01/28 03:18:16;;;;;;;3.53;3.23;;;3.60;99.90;;;;;;5080277;28;20187;-69
2021/01/28 03:20:42;;;;;;;3.57;3.27;;;3.70;99.90;;;;;;5074395;28;20192;-70
2021/01/28 03:23:09;;;;;;;3.60;3.10;;;3.60;99.90;;;;;;5070393;28;20238;-69
2021/01/28 03:25:35;;;;;;;3.37;3.07;;;3.70;99.90;;;;;;5071232;28;20183;-71
2021/01/28 03:28:02;;;;;;;3.50;2.83;;;3.70;99.90;;;;;;5070343;28;20277;-70
2021/01/28 03:30:33;;;;;;;3.27;3.07;;;3.70;99.90;;;;;;5074573;28;20711;-70
2021/01/28 03:33:00;;;;;;;4.50;2.73;;;3.70;99.90;;;;;;5078579;28;20212;-69
2021/01/28 03:35:27;;;;;;;3.03;2.77;;;3.70;99.90;;;;;;5080509;28;20221;-69
2021/01/28 03:37:53;;;;;;;3.27;2.97;;;3.80;99.90;;;;;;5069785;28;20717;-68
2021/01/28 03:40:22;;;;;;;4.97;3.37;;;3.80;99.90;;;;;;5070456;28;20205;-71
2021/01/28 03:42:47;;;;;;;2.70;2.50;;;3.80;99.90;;;;;;5079989;28;20206;-69
2021/01/28 03:45:14;;;;;;;2.77;2.57;;;3.80;99.90;;;;;;5081985;28;20201;-70
2021/01/28 03:47:40;;;;;;;2.97;2.67;;;3.80;99.90;;;;;;5073035;28;20185;-70
2021/01/28 03:50:08;;;;;;;2.53;2.33;;;3.80;99.90;;;;;;5086441;28;20203;-72
2021/01/28 03:52:34;;;;;;;2.43;2.23;;;3.80;99.90;;;;;;5072857;28;20329;-69
2021/01/28 03:55:00;;;;;;;4.13;2.43;;;3.80;99.90;;;;;;5070063;28;20758;-70
2021/01/28 03:57:25;;;;;;;3.20;2.90;;;3.80;99.90;;;;;;5072158;28;20179;-70
2021/01/28 03:59:51;;;;;;;2.57;2.37;;;3.80;99.90;;;;;;5070505;28;20645;-69
2021/01/28 04:02:17;;;;;;;2.60;2.40;;;3.80;99.90;;;;;;5071691;28;20586;-69
2021/01/28 04:04:42;;;;;;;2.80;2.60;;;3.90;99.90;;;;;;5075049;28;20649;-69
2021/01/28 04:07:08;;;;;;;3.47;2.60;;;3.90;99.90;;;;;;5069341;28;20185;-70
2021/01/28 04:09:33;;;;;;;2.87;2.57;;;3.90;99.90;;;;;;5070686;28;20689;-70
2021/01/28 04:11:59;;;;;;;2.70;2.50;;;3.90;99.90;;;;;;5063796;28;20259;-70
2021/01/28 04:14:24;;;;;;;2.77;2.33;;;3.90;99.90;;;;;;5072960;28;20221;-70
2021/01/28 04:16:50;;;;;;;3.20;2.90;;;3.90;99.90;;;;;;5087034;28;20228;-70
2021/01/28 04:19:16;;;;;;;2.97;2.77;;;3.90;99.90;;;;;;5069297;28;20737;-68
2021/01/28 04:21:41;;;;;;;3.80;3.50;;;3.90;99.90;;;;;;5080695;28;20203;-67
2021/01/28 04:24:07;;;;;;;3.80;3.50;;;3.80;99.90;;;;;;5075784;28;20204;-70
2021/01/28 04:26:34;;;;;;;5.43;3.97;;;3.70;99.90;;;;;;5082926;28;20181;-68
2021/01/28 04:29:01;;;;;;;5.83;3.63;;;3.50;99.90;;;;;;5071963;28;20262;-70
2021/01/28 04:31:26;;;;;;;7.67;4.20;;;3.40;99.90;;;;;;5075406;28;20275;-71
2021/01/28 04:33:52;;;;;;;5.07;4.67;;;3.40;99.90;;;;;;5069896;28;20255;-70
2021/01/28 04:36:18;;;;;;;5.57;4.83;;;3.40;99.90;;;;;;5081760;28;20185;-70
2021/01/28 04:38:43;;;;;;;5.80;5.20;;;3.40;99.90;;;;;;5071574;28;20206;-68
2021/01/28 04:41:19;;;;;;;6.70;5.07;;;3.40;99.90;;;;;;5072650;28;20349;-69
2021/01/28 04:43:48;;;;;;;7.13;5.30;;;3.40;99.90;;;;;;5074415;28;20199;-69
2021/01/28 04:46:33;;;;;;;6.50;5.83;;;3.40;99.90;;;;;;5074791;28;20663;-68
2021/01/28 04:49:01;;;;;;;6.07;5.47;;;3.40;99.90;;;;;;5072468;28;20196;-68
2021/01/28 04:51:28;;;;;;;7.93;6.30;;;3.40;99.90;;;;;;5069447;28;20233;-69
2021/01/28 04:54:08;;;;;;;6.37;5.67;;;3.40;99.90;;;;;;5082566;28;20199;-68
2021/01/28 04:56:33;;;;;;;6.20;5.40;;;3.30;99.90;;;;;;5075292;28;20195;-69
2021/01/28 04:59:24;;;;;;;7.33;6.00;;;3.30;99.90;;;;;;5070015;28;20214;-69
2021/01/28 05:01:50;;;;;;;7.17;6.17;;;3.40;99.90;;;;;;5071014;28;20183;-68
2021/01/28 05:04:18;;;;;;;6.67;5.97;;;3.40;99.90;;;;;;5077592;28;20207;-69
2021/01/28 05:06:48;;;;;;;7.07;6.10;;;3.40;99.90;;;;;;5076441;28;20211;-69
2021/01/28 05:09:15;;;;;;;6.60;6.00;;;3.40;99.90;;;;;;5078897;28;20218;-69
2021/01/28 05:11:54;;;;;;;7.33;6.50;;;3.40;99.90;;;;;;5077302;28;20220;-69
2021/01/28 05:14:27;;;;;;;6.40;5.80;;;3.40;99.90;;;;;;5072751;28;20669;-70
2021/01/28 05:16:57;;;;;;;7.53;6.63;;;3.40;99.90;;;;;;5081442;28;20200;-70
2021/01/28 05:19:48;;;;;;;7.70;6.90;;;3.40;99.90;;;;;;5066280;28;20572;-70
2021/01/28 05:22:38;;;;;;;8.20;6.87;;;3.40;99.90;;;;;;5062970;28;20232;-69
2021/01/28 05:25:15;;;;;;;8.97;6.23;;;3.30;99.90;;;;;;5071898;28;20243;-70
2021/01/28 05:27:41;;;;;;;9.00;6.80;;;3.40;99.90;;;;;;5070104;28;20184;-70
2021/01/28 05:30:13;;;;;;;8.13;6.47;;;3.40;99.90;;;;;;5079341;28;20217;-69
2021/01/28 05:32:42;;;;;;;6.73;6.03;;;3.40;99.90;;;;;;5086084;28;20194;-69
2021/01/28 05:35:26;;;;;;;8.50;7.40;;;3.40;99.90;;;;;;5077963;28;20187;-69
2021/01/28 05:38:03;;;;;;;8.63;6.43;;;3.40;99.90;;;;;;5085969;28;20182;-70
2021/01/28 05:40:29;;;;;;;8.97;7.37;;;3.40;99.90;;;;;;5069043;28;20205;-71
2021/01/28 05:42:55;;;;;;;12.90;7.07;;;3.40;99.90;;;;;;5074585;28;20287;-70
2021/01/28 05:45:23;;;;;;;8.87;6.67;;;3.40;99.90;;;;;;5080931;28;20275;-71
2021/01/28 05:47:50;;;;;;;8.53;6.13;;;3.40;99.90;;;;;;5074677;28;20183;-73
2021/01/28 05:50:31;;;;;;;11.40;6.43;;;3.40;99.90;;;;;;5071013;28;20206;-71
2021/01/28 05:53:10;;;;;;;6.80;5.93;;;3.30;99.90;;;;;;5067417;28;20178;-70
2021/01/28 05:55:35;;;;;;;6.70;6.07;;;3.30;99.90;;;;;;5065269;28;20537;-69
2021/01/28 05:58:11;;;;;;;6.90;6.27;;;3.30;99.90;;;;;;5062916;28;20192;-73
2021/01/28 06:00:45;;;;;;;7.37;5.93;;;3.20;99.90;;;;;;5064488;28;20205;-70
2021/01/28 06:03:33;;;;;;;8.30;6.53;;;3.20;99.90;;;;;;5067080;28;20204;-71
2021/01/28 06:06:04;;;;;;;9.63;7.13;;;3.20;99.90;;;;;;5060089;28;20177;-70
2021/01/28 06:08:51;;;;;;;10.30;7.67;;;3.20;99.90;;;;;;5075207;28;20193;-70
2021/01/28 06:11:46;;;;;;;10.63;7.67;;;3.10;99.90;;;;;;5070865;28;20244;-69
2021/01/28 06:14:47;;;;;;;16.27;9.13;;;3.10;99.90;;;;;;5068990;28;20189;-70
2021/01/28 06:17:30;;;;;;;16.37;8.13;;;3.10;99.90;;;;;;5070223;28;20192;-69
2021/01/28 06:19:59;;;;;;;15.13;8.77;;;3.00;99.90;;;;;;5067570;28;20203;-70
2021/01/28 06:22:31;;;;;;;10.17;7.40;;;3.10;99.90;;;;;;5069715;28;20226;-70
2021/01/28 06:25:29;;;;;;;9.07;6.03;;;3.10;99.90;;;;;;5058120;28;20261;-71
2021/01/28 06:28:06;;;;;;;8.27;6.80;;;3.20;99.90;;;;;;5076096;28;20195;-74
2021/01/28 06:31:09;;;;;;;11.70;7.47;;;3.20;99.90;;;;;;5073231;28;20563;-72
2021/01/28 06:33:54;;;;;;;12.30;7.57;;;3.10;99.90;;;;;;5071512;28;20207;-72
2021/01/28 06:36:34;;;;;;;10.37;8.37;;;3.10;99.90;;;;;;5056784;28;20833;-69
2021/01/28 06:39:21;;;;;;;9.77;7.80;;;3.10;99.90;;;;;;5060278;28;20200;-68
2021/01/28 06:42:17;;;;;;;16.10;8.83;;;3.00;99.90;;;;;;5066205;28;20205;-69
2021/01/28 06:44:48;;;;;;;11.57;8.53;;;3.00;99.90;;;;;;5069862;28;20358;-72
2021/01/28 06:47:21;;;;;;;12.93;8.70;;;3.00;99.90;;;;;;5069394;28;20730;-70
2021/01/28 06:50:01;;;;;;;12.47;8.50;;;3.00;99.90;;;;;;5067087;28;20198;-71
2021/01/28 06:52:45;;;;;;;10.60;8.43;;;3.00;99.90;;;;;;5072428;28;20184;-69
2021/01/28 06:55:26;;;;;;;10.33;8.33;;;3.00;99.90;;;;;;5082102;28;20212;-71
2021/01/28 06:58:34;;;;;;;14.80;8.93;;;3.00;99.90;;;;;;5081955;28;20241;-69
2021/01/28 07:01:11;;;;;;;14.53;9.53;;;3.10;99.90;;;;;;5035389;28;20682;-74
2021/01/28 07:04:17;;;;;;;13.93;9.03;;;3.10;99.90;;;;;;5069415;28;20252;-71
2021/01/28 07:07:08;;;;;;;15.47;9.43;;;3.10;99.90;;;;;;5031071;28;20187;-70
2021/01/28 07:10:08;;;;;;;13.47;9.47;;;3.20;99.90;;;;;;5064601;28;20202;-72
2021/01/28 07:12:42;;;;;;;11.33;8.87;;;3.20;99.90;;;;;;5075118;28;20264;-70
2021/01/28 07:15:11;;;;;;;19.47;9.57;;;3.20;99.90;;;;;;5065032;28;20204;-70
2021/01/28 07:17:41;;;;;;;15.40;9.80;;;3.20;99.90;;;;;;5068126;28;20172;-70
2021/01/28 07:20:27;;;;;;;16.83;12.30;;;3.20;99.90;;;;;;5062885;28;20207;-71
2021/01/28 07:22:52;;;;;;;16.70;11.50;;;3.20;99.90;;;;;;5060611;28;20217;-71
2021/01/28 07:25:34;;;;;;;14.90;10.70;;;3.30;99.90;;;;;;5071317;28;20177;-71
2021/01/28 07:28:01;;;;;;;15.00;10.30;;;3.30;99.90;;;;;;5071244;28;20174;-69
2021/01/28 07:31:08;;;;;;;15.50;9.53;;;3.30;99.90;;;;;;5076255;28;20205;-72
2021/01/28 07:33:40;;;;;;;12.60;7.87;;;3.40;99.90;;;;;;5058024;28;20280;-72
2021/01/28 07:36:23;;;;;;;9.80;7.40;;;3.40;99.90;;;;;;5069534;28;20184;-70
2021/01/28 07:38:56;;;;;;;10.40;7.27;;;3.50;99.90;;;;;;5070871;28;20215;-70
2021/01/28 07:41:29;;;;;;;12.43;8.20;;;3.50;99.90;;;;;;5074641;28;20186;-73
2021/01/28 07:44:24;;;;;;;12.60;8.20;;;3.50;99.90;;;;;;5069318;28;20218;-70
2021/01/28 07:46:50;;;;;;;14.80;7.50;;;3.60;99.90;;;;;;5063799;28;20191;-70
2021/01/28 07:49:23;;;;;;;10.03;7.70;;;3.60;99.90;;;;;;5065773;28;20218;-71
2021/01/28 07:52:16;;;;;;;11.37;6.60;;;3.60;99.90;;;;;;5074487;28;20175;-73
2021/01/28 07:54:55;;;;;;;7.30;6.60;;;3.60;99.90;;;;;;5053655;28;20194;-71
2021/01/28 07:57:30;;;;;;;10.57;7.27;;;3.60;99.90;;;;;;5065009;28;20509;-72
2021/01/28 08:00:07;;;;;;;11.33;7.23;;;3.60;99.90;;;;;;5075343;28;20206;-71
2021/01/28 08:02:35;;;;;;;10.80;7.13;;;3.50;99.90;;;;;;5071843;28;20172;-72
2021/01/28 08:05:04;;;;;;;11.03;8.37;;;3.50;99.90;;;;;;5077486;28;20291;-70
2021/01/28 08:07:44;;;;;;;10.93;8.00;;;3.50;99.90;;;;;;5076103;28;20213;-72
2021/01/28 08:10:23;;;;;;;9.67;7.40;;;3.50;99.90;;;;;;5076831;28;20204;-71
2021/01/28 08:13:10;;;;;;;11.87;7.93;;;3.50;99.90;;;;;;5076480;28;20176;-70
2021/01/28 08:15:44;;;;;;;10.27;7.43;;;3.50;99.90;;;;;;5069183;28;20173;-68
2021/01/28 08:18:18;;;;;;;13.30;8.23;;;3.60;99.90;;;;;;5083452;28;20283;-71
2021/01/28 08:20:44;;;;;;;13.37;7.60;;;3.60;99.90;;;;;;5076353;28;20568;-72
2021/01/28 08:23:26;;;;;;;9.47;7.00;;;3.70;99.90;;;;;;5072571;28;20205;-71
2021/01/28 08:26:01;;;;;;;9.87;7.10;;;3.70;99.90;;;;;;5074086;28;20183;-69
2021/01/28 08:28:30;;;;;;;10.87;6.63;;;3.70;99.90;;;;;;5067373;28;20798;-69
2021/01/28 08:31:02;;;;;;;9.83;6.33;;;3.70;99.90;;;;;;5064767;28;20198;-70
2021/01/28 08:33:28;;;;;;;10.53;6.53;;;3.60;99.90;;;;;;5075380;28;20179;-70
2021/01/28 08:36:01;;;;;;;10.30;7.30;;;3.60;99.90;;;;;;5088617;28;20251;-70
2021/01/28 08:38:33;;;;;;;9.80;6.97;;;3.70;99.90;;;;;;5083951;28;20189;-72
2021/01/28 08:41:15;;;;;;;13.50;7.70;;;3.60;99.90;;;;;;5071877;28;20267;-70
2021/01/28 08:43:41;;;;;;;9.43;6.63;;;3.60;99.90;;;;;;5073131;28;20556;-71
2021/01/28 08:46:11;;;;;;;8.47;6.67;;;3.60;99.90;;;;;;5071578;28;20198;-69
2021/01/28 08:48:37;;;;;;;9.00;6.53;;;3.60;99.90;;;;;;5065478;28;20700;-71
2021/01/28 08:51:08;;;;;;;10.77;7.47;;;3.60;99.90;;;;;;5081083;28;20189;-71
2021/01/28 08:53:35;;;;;;;8.90;7.17;;;3.60;99.90;;;;;;5076464;28;20189;-70
2021/01/28 08:56:13;;;;;;;12.83;7.47;;;3.60;99.90;;;;;;5089867;28;20291;-70
2021/01/28 08:58:41;;;;;;;11.07;7.70;;;3.70;99.90;;;;;;5088462;28;20183;-71
2021/01/28 09:01:08;;;;;;;11.60;7.33;;;3.70;99.90;;;;;;5083680;28;20196;-70
2021/01/28 09:03:44;;;;;;;10.87;7.00;;;3.70;99.90;;;;;;5082197;28;20192;-70
2021/01/28 09:06:10;;;;;;;7.00;5.93;;;3.80;99.90;;;;;;5075890;28;20198;-70
2021/01/28 09:08:39;;;;;;;8.27;6.33;;;3.80;99.90;;;;;;5081266;28;20184;-69
2021/01/28 09:11:27;;;;;;;10.33;6.50;;;3.90;99.90;;;;;;5075379;28;20175;-70
2021/01/28 09:14:14;;;;;;;10.57;6.83;;;4.00;99.90;;;;;;5067729;28;20328;-70
2021/01/28 09:16:49;;;;;;;9.60;6.47;;;4.00;99.90;;;;;;5076721;28;20209;-71
2021/01/28 09:19:17;;;;;;;6.97;5.63;;;4.00;99.90;;;;;;5076941;28;20194;-71
2021/01/28 09:21:45;;;;;;;8.83;6.00;;;4.10;99.90;;;;;;5075420;28;20196;-71
2021/01/28 09:24:20;;;;;;;7.30;5.80;;;4.00;99.90;;;;;;5080821;28;20198;-71
2021/01/28 09:26:47;;;;;;;7.90;6.10;;;4.00;99.90;;;;;;5067989;28;20182;-70
2021/01/28 09:29:18;;;;;;;8.20;6.63;;;4.00;99.90;;;;;;5070390;28;20202;-70
2021/01/28 09:31:44;;;;;;;10.30;5.73;;;4.00;99.90;;;;;;5072141;28;20647;-69
2021/01/28 09:34:15;;;;;;;8.00;5.40;;;4.10;99.90;;;;;;5078621;28;20186;-69
2021/01/28 09:36:42;;;;;;;8.87;5.57;;;4.20;99.90;;;;;;5072260;28;20191;-69
2021/01/28 09:39:19;;;;;;;7.03;5.40;;;4.30;99.90;;;;;;5081074;28;20225;-69
2021/01/28 09:41:47;;;;;;;8.50;5.17;;;4.50;99.90;;;;;;5069687;28;20625;-71
2021/01/28 09:44:49;;;;;;;11.73;6.93;;;4.60;99.90;;;;;;5070759;28;20700;-70
2021/01/28 09:47:21;;;;;;;14.00;7.23;;;4.80;99.90;;;;;;4984200;28;20202;-71
2021/01/28 09:49:50;;;;;;;18.07;8.67;;;5.00;99.90;;;;;;4990027;28;20214;-71
2021/01/28 09:52:37;;;;;;;16.13;7.73;;;5.10;99.90;;;;;;4994792;28;20658;-70
2021/01/28 09:55:06;;;;;;;9.07;5.60;;;5.20;99.90;;;;;;4992866;28;20204;-70
2021/01/28 09:57:32;;;;;;;5.00;3.67;;;5.30;99.90;;;;;;4991939;28;20733;-68
2021/01/28 09:59:58;;;;;;;9.30;5.40;;;5.40;99.90;;;;;;4997463;28;20226;-70
2021/01/28 10:02:49;;;;;;;9.77;6.43;;;5.40;99.90;;;;;;4999026;28;20220;-71
2021/01/28 10:05:22;;;;;;;6.17;4.90;;;5.40;99.90;;;;;;4984915;28;20628;-70
2021/01/28 10:07:49;;;;;;;2.87;2.43;;;5.40;99.90;;;;;;5001649;28;20320;-70
2021/01/28 10:10:17;;;;;;;2.90;2.70;;;5.50;99.90;;;;;;4991419;28;20785;-69
2021/01/28 10:12:43;;;;;;;2.60;2.40;;;5.50;99.90;;;;;;4989520;28;20225;-70
2021/01/28 10:15:10;;;;;;;3.00;2.73;;;5.60;99.90;;;;;;4986817;28;20674;-70
2021/01/28 10:17:36;;;;;;;2.43;2.17;;;5.60;99.90;;;;;;4985352;28;20186;-70
2021/01/28 10:20:02;;;;;;;3.30;2.43;;;5.60;99.90;;;;;;4989355;28;20218;-69
2021/01/28 10:22:30;;;;;;;2.63;2.20;;;5.70;99.90;;;;;;5034112;28;20838;-71
2021/01/28 10:24:55;;;;;;;3.53;2.70;;;5.70;99.90;;;;;;5076597;28;20239;-70
2021/01/28 10:27:21;;;;;;;3.43;2.67;;;5.70;99.90;;;;;;5069646;28;20226;-70
2021/01/28 10:29:46;;;;;;;1.77;1.67;;;5.70;99.90;;;;;;5070618;28;20198;-70
2021/01/28 10:32:16;;;;;;;3.20;2.60;;;5.70;99.90;;;;;;5072634;28;20190;-70
2021/01/28 10:34:42;;;;;;;3.00;2.40;;;5.80;99.90;;;;;;5071618;28;21013;-70
2021/01/28 10:37:09;;;;;;;2.73;1.97;;;5.80;99.90;;;;;;5072660;28;20218;-71
2021/01/28 10:39:36;;;;;;;1.97;1.57;;;5.80;99.90;;;;;;5072673;28;20220;-71
2021/01/28 10:42:02;;;;;;;1.70;1.60;;;5.90;99.90;;;;;;5065030;28;20196;-72
2021/01/28 10:44:28;;;;;;;1.90;1.80;;;5.90;99.90;;;;;;5070232;28;20198;-69
2021/01/28 10:46:54;;;;;;;1.93;1.70;;;5.90;99.90;;;;;;5068530;28;20267;-70
2021/01/28 10:49:20;;;;;;;1.83;1.73;;;6.00;99.90;;;;;;5065115;28;20227;-70
2021/01/28 10:51:48;;;;;;;1.93;1.73;;;6.00;99.90;;;;;;5074406;28;20182;-71
2021/01/28 10:54:15;;;;;;;1.63;1.53;;;6.00;99.90;;;;;;5070451;28;20620;-69
2021/01/28 10:56:40;;;;;;;2.57;1.30;;;6.00;99.90;;;;;;5066292;28;20185;-72
2021/01/28 10:59:06;;;;;;;3.07;1.87;;;6.10;99.90;;;;;;5067030;28;20207;-70
2021/01/28 11:01:32;;;;;;;2.13;1.90;;;6.10;99.90;;;;;;5075498;28;20186;-69
2021/01/28 11:03:58;;;;;;;2.27;2.07;;;6.10;99.90;;;;;;5069524;28;20211;-70
2021/01/28 11:06:23;;;;;;;1.87;1.77;;;6.20;99.90;;;;;;5075580;28;20243;-72
2021/01/28 11:08:49;;;;;;;1.70;1.60;;;6.20;99.90;;;;;;5081200;28;20224;-70
2021/01/28 11:11:16;;;;;;;3.40;1.80;;;6.30;99.90;;;;;;5062651;28;20214;-70
2021/01/28 11:13:42;;;;;;;1.50;1.40;;;6.40;99.90;;;;;;5074474;28;20189;-70
2021/01/28 11:16:08;;;;;;;3.03;1.60;;;6.50;99.90;;;;;;5064474;28;20185;-69
2021/01/28 11:18:34;;;;;;;2.23;1.73;;;6.40;99.90;;;;;;5063860;28;20568;-71
2021/01/28 11:20:59;;;;;;;2.60;1.80;;;6.50;99.90;;;;;;5072559;28;20296;-71
2021/01/28 11:23:25;;;;;;;2.60;2.27;;;6.40;99.90;;;;;;5078221;28;20225;-74
2021/01/28 11:25:51;;;;;;;2.97;1.93;;;6.50;99.90;;;;;;5073002;28;20209;-71
2021/01/28 11:28:17;;;;;;;3.53;1.63;;;6.50;99.90;;;;;;5069077;28;20182;-69
2021/01/28 11:30:42;;;;;;;3.60;2.07;;;6.60;99.90;;;;;;5070186;28;20236;-72
2021/01/28 11:33:08;;;;;;;1.40;1.30;;;6.50;99.90;;;;;;5071123;28;20235;-69
2021/01/28 11:35:36;;;;;;;1.70;1.60;;;6.50;99.90;;;;;;5071456;28;20189;-72
2021/01/28 11:38:03;;;;;;;5.10;2.10;;;6.50;99.90;;;;;;5070240;28;20193;-70
2021/01/28 11:40:30;;;;;;;4.13;2.60;;;6.50;99.90;;;;;;5081942;28;20228;-70
2021/01/28 11:42:56;;;;;;;1.83;1.73;;;6.60;99.90;;;;;;5071837;28;20178;-70
2021/01/28 11:45:26;;;;;;;1.80;1.70;;;6.80;99.90;;;;;;5086215;28;20182;-70
2021/01/28 11:47:52;;;;;;;1.97;1.87;;;7.00;99.90;;;;;;5082957;28;20182;-70
2021/01/28 11:50:18;;;;;;;1.60;1.50;;;7.20;99.90;;;;;;5072937;28;20216;-68
2021/01/28 11:52:45;;;;;;;2.77;1.80;;;7.30;99.90;;;;;;5084084;28;20205;-69
2021/01/28 11:55:14;;;;;;;2.00;1.90;;;7.40;99.90;;;;;;5083969;28;20183;-70
2021/01/28 11:57:40;;;;;;;1.93;1.70;;;7.50;99.90;;;;;;5085131;28;20171;-71
2021/01/28 12:00:10;;;;;;;2.20;2.00;;;7.60;99.90;;;;;;5084942;28;20222;-70
2021/01/28 12:02:36;;;;;;;2.57;1.70;;;7.50;99.90;;;;;;5095010;28;20176;-70
2021/01/28 12:05:02;;;;;;;2.00;1.70;;;7.50;99.90;;;;;;5081285;28;20270;-70
2021/01/28 12:07:28;;;;;;;2.67;1.80;;;7.50;99.90;;;;;;5078480;28;20191;-70
2021/01/28 12:09:54;;;;;;;2.10;1.90;;;7.50;99.90;;;;;;5083310;28;20200;-71
2021/01/28 12:12:19;;;;;;;1.70;1.60;;;7.60;99.90;;;;;;5081290;28;20223;-69
2021/01/28 12:14:45;;;;;;;1.93;1.73;;;7.70;99.90;;;;;;5077246;28;20190;-69
2021/01/28 12:17:11;;;;;;;2.57;1.80;;;7.90;99.90;;;;;;5089594;28;20190;-70
2021/01/28 12:19:36;;;;;;;2.23;2.07;;;8.00;99.90;;;;;;5090702;28;20230;-71
2021/01/28 12:22:02;;;;;;;1.60;1.50;;;8.00;99.90;;;;;;5077952;28;20667;-71
2021/01/28 12:24:28;;;;;;;2.40;1.60;;;8.00;99.90;;;;;;5068340;28;20241;-69
2021/01/28 12:26:55;;;;;;;3.20;1.50;;;8.20;99.90;;;;;;5064946;28;20171;-70
2021/01/28 12:29:21;;;;;;;1.90;1.40;;;8.30;99.90;;;;;;5069867;28;20563;-71
2021/01/28 12:31:47;;;;;;;1.60;1.50;;;8.30;99.90;;;;;;5076540;28;20200;-72
2021/01/28 12:34:13;;;;;;;1.63;1.53;;;8.30;99.90;;;;;;5081738;28;20223;-70
2021/01/28 12:36:38;;;;;;;1.33;1.33;;;8.20;99.90;;;;;;5076608;28;20190;-72
2021/01/28 12:39:04;;;;;;;1.83;1.60;;;8.30;99.90;;;;;;5070629;28;20214;-70
2021/01/28 12:41:30;;;;;;;1.73;1.63;;;8.40;99.90;;;;;;5077091;28;20210;-70
2021/01/28 12:43:56;;;;;;;2.57;2.10;;;8.70;99.90;;;;;;5072642;28;20294;-76
2021/01/28 12:46:21;;;;;;;1.97;1.87;;;8.70;99.90;;;;;;5077846;28;20186;-76
2021/01/28 12:48:47;;;;;;;1.60;1.50;;;8.80;99.90;;;;;;5084358;28;20213;-76
2021/01/28 12:51:12;;;;;;;1.60;1.50;;;8.80;99.90;;;;;;5072919;28;20205;-76
2021/01/28 12:53:38;;;;;;;1.77;1.67;;;8.80;99.90;;;;;;5075715;28;20190;-76
2021/01/28 12:56:04;;;;;;;2.67;1.47;;;8.90;99.90;;;;;;5073886;28;20187;-76
2021/01/28 12:58:30;;;;;;;1.30;1.20;;;9.10;99.90;;;;;;5065002;28;20199;-76
2021/01/28 13:00:55;;;;;;;2.00;1.90;;;9.40;99.90;;;;;;5065947;28;20257;-77
2021/01/28 13:03:21;;;;;;;1.30;1.20;;;10.20;99.90;;;;;;5077701;28;20198;-76
2021/01/28 13:05:46;;;;;;;1.30;1.27;;;11.00;99.90;;;;;;5075313;28;20186;-76
2021/01/28 13:08:12;;;;;;;1.30;1.20;;;11.50;99.90;;;;;;5071556;28;20187;-76
2021/01/28 13:10:38;;;;;;;1.48;1.40;;;11.30;99.90;;;;;;5069086;28;20198;-76
2021/01/28 13:13:03;;;;;;;1.52;1.42;;;10.90;99.90;;;;;;5080842;28;20182;-77